Turbeville, SC (29162)

2:24 AM EST on December 20, 2014 (GMT -0500)
USC Sumter | Change Station
CLOSE
Current Station
Personal Weather Station
Location: Sumter, SC
Elevation: 165 ft
Nearby Weather Stations

Elev 165 ft 33.93 °N, 80.37 °W | Updated 25 minutes ago

Mostly Cloudy
Mostly Cloudy
46.7 °F
Feels Like 47 °F
N
0.0
Wind Variable Wind from North
Gusts 0.0 mph

Today
High -- | Low -- °F
--% Chance of Precip.
Yesterday
High -- | Low -- °F
Precip. -- in
7:20 AM 5:14 PM
Waning Crescent, 4% visible
Pressure 30.18 in
Visibility 10.0 miles
Clouds Few 4100 ft
Windchill 47 °F
Dew Point 36 °F
Humidity 66%
Rainfall -999.00 in
Snow Depth Not available.
UV 0.0 out of 12
Pollen 3.00 out of 12
Air Quality Not available.
Flu Activity Not available.
METAR KSMS 200715Z AUTO 00000KT 10SM FEW041 07/04 A3018 RMK AO2

More Conditions Fewer Conditions

Pressure 30.18 in
Visibility 10.0 miles
Clouds Few 4100 ft
Windchill 47 °F
Dew Point 36 °F
Humidity 66%
Rainfall -999.00 in
Snow Depth Not available.
UV 0.0 out of 12
Pollen 3.00 out of 12
Air Quality Not available.
Flu Activity Not available.
METAR KSMS 200715Z AUTO 00000KT 10SM FEW041 07/04 A3018 RMK AO2

More Conditions Fewer Conditions

10-Day Weather Forecast

Almanac

Astronomy

Dec. 20, 2014 Rise Set
Actual Time
Civil Twilight
Nautical Twilight
Astronomical Twilight
Moon
Length of Visible Light
Length of Day
Tomorrow will be .
, % of the Moon is Illuminated

Today's Extremes

State Highs State Lows

Community

WunderPhotos

Upload Photos

1,779,146 photos uploaded!

WunderBlogs® & News

Nearby

Air Quality

  Air Quality AQ Index Pollutant
Not available.

Snow Depth

Station Depth Elevation

Earthquake Activity

City Distance Mag. Time & Date
Minimum magnitude displayed is 2.5.

Coastal Water Temperatures

Place Temperature

Nearby Weather Stations